Aérodrome :
LOGIN :

S'inscrire | Disclaimer

   EN    FR    IT 

 










Légende :    VFR   VFR Marginal   IFR   IFR Intensif   IFR Très Intensif
Visi : 
Plafond : 
>= 8 km
>= 3000ft
5 à 8 km
1000 à 3000 ft
1500m à 5 km
500 à 1000 ft
800 à 1500m
200 à 500 ft
< 800m
< 200 ft
Symboles :   Orages  Brouillard  Fortes neiges  Fortes précipitations  Vent > 20 kt
SIGMETs :   Divers  Orages  Givrage  Turbulence  Onde Orograph.  Cendres Volcan.







- Altitude de l'aérodrome : 26 ft
- Code IATA : BIA
- Voir les cartes d'approche


LFKB - Bastia

DERNIER METAR :
  • 280800Z 26009KT 220V310 9999 FEW030 17/M02 Q1008 NOSIG

METARs EXPIRÉS :
  • 280730Z 28007KT 250V310 9999 FEW030 16/M01 Q1007 NOSIG
  • 280700Z 31005KT 240V340 9999 FEW030 16/M01 Q1007 NOSIG
  • 280630Z VRB02KT 9999 FEW030 15/M00 Q1007 NOSIG
  • 280600Z VRB03KT 9999 FEW030 13/01 Q1007 NOSIG
  • 280530Z 25007KT 220V290 9999 FEW030 12/01 Q1007 NOSIG

TAF TAF LFKB
Valide du 28 à 03h jusqu'au 29 à 03h UTC


280200Z 2803/2903 34004KT 9999 SCT030 SCT080
BECMG 2805/2808 28012KT SCT030
BECMG 2816/2818 24006KT CAVOK TX19/2812Z TN12/2803Z
ATIS : +33 4 95 59 19 40
Pas de NOTAMs connus pour ce terrain.
2 SIGMETs publiés pour la FIR Marseille (LFMM) :
 
Turbulence forte
LFMM SIGMET 4 VALID 280700/281100 LFPW
LFMM MARSEILLE FIR/UIR SEV TURB FCST WI N4300 E00945 - N4115 E00945 - N4115 E00600 - N4430 E00300 - N4445 E00500 - N4345 E00700 SFC/FL060 STNR NC=
Onde orographique forte
LFMM SIGMET 3 VALID 280700/281100 LFPW
LFMM MARSEILLE FIR/UIR SEV MTW FCST WI N4315 E00930 - N4315 E00945 - N4115 E00945 - N4115 E00845 - N4230 E00815 FL060/260 STNR NC=



MET'MAP, la Météo Aéronautique d'un coup d'oeil ! - Copyright ORBIFLY Décembre 2007 - Disclaimer

ORBIFLY MET'MAP TEAM :

Programmation & Développement : Alexandra Zaïnal
Conception & Développement : Baudouin d'Aumeries
Co-Programmation & Développement : Marc-Olivier Méhu
Soutien technique & logistique : Manuel Goepfert

Contact : metmap@orbifly.com




SOURCES & CREDITS :

   NOAA